createdAt,value
2023-03-26T00:01:39.615Z,12.00
2023-03-26T00:04:07.601Z,12.05
2023-03-26T00:06:40.050Z,12.15
2023-03-26T00:09:09.949Z,11.63
2023-03-26T00:11:37.048Z,11.45
2023-03-26T00:14:05.747Z,11.77
2023-03-26T00:16:33.383Z,12.15
2023-03-26T00:19:02.261Z,12.90
2023-03-26T00:21:30.831Z,12.45
2023-03-26T00:24:01.083Z,11.50
2023-03-26T00:26:31.253Z,12.32
2023-03-26T00:29:00.607Z,12.95
2023-03-26T00:33:55.792Z,11.77
2023-03-26T00:36:25.823Z,13.05
2023-03-26T00:38:54.351Z,11.95
2023-03-26T00:41:24.980Z,14.25
2023-03-26T00:43:56.666Z,11.77
2023-03-26T00:46:25.894Z,14.25
2023-03-26T00:48:53.949Z,15.07
2023-03-26T00:51:21.981Z,12.48
2023-03-26T00:53:50.852Z,13.63
2023-03-26T00:56:19.126Z,12.38
2023-03-26T00:58:50.173Z,12.63
2023-03-26T01:01:21.686Z,13.50
2023-03-26T01:04:05.222Z,12.63
2023-03-26T01:06:42.536Z,12.43
2023-03-26T01:09:19.074Z,13.82
2023-03-26T01:14:18.543Z,12.13
2023-03-26T01:16:52.374Z,12.90
2023-03-26T01:19:34.144Z,13.70
2023-03-26T01:22:01.423Z,12.98
2023-03-26T01:24:28.883Z,12.43
2023-03-26T01:27:17.933Z,13.82
2023-03-26T01:29:56.116Z,12.65
2023-03-26T01:32:50.276Z,13.18
2023-03-26T01:35:29.018Z,12.93
2023-03-26T01:37:58.898Z,13.75
2023-03-26T01:40:38.676Z,14.00
2023-03-26T01:43:12.953Z,14.50
2023-03-26T01:45:45.002Z,13.18
2023-03-26T01:48:13.254Z,13.07
2023-03-26T01:50:41.490Z,13.35
2023-03-26T01:53:11.526Z,13.30
2023-03-26T01:55:49.561Z,13.30
2023-03-26T01:58:30.580Z,13.88
2023-03-26T02:01:02.245Z,13.27
2023-03-26T02:03:38.379Z,11.02
2023-03-26T02:06:30.798Z,14.55
2023-03-26T02:09:08.595Z,13.50
2023-03-26T02:11:38.627Z,15.48
2023-03-26T02:14:07.256Z,13.88
2023-03-26T02:16:34.695Z,14.48
2023-03-26T02:19:01.955Z,12.90
2023-03-26T02:21:29.295Z,14.07
2023-03-26T02:24:05.581Z,13.50
2023-03-26T02:26:35.719Z,14.82
2023-03-26T02:29:03.020Z,13.75
2023-03-26T02:31:30.636Z,14.50
2023-03-26T02:33:57.701Z,14.15
2023-03-26T02:36:27.862Z,14.35
2023-03-26T02:38:58.255Z,13.52
2023-03-26T02:41:25.960Z,14.75
2023-03-26T02:43:53.104Z,13.77
2023-03-26T02:46:20.644Z,14.23
2023-03-26T02:48:48.104Z,15.70
2023-03-26T02:51:18.266Z,14.18
2023-03-26T02:53:46.225Z,15.55
2023-03-26T02:56:13.860Z,14.68
2023-03-26T02:58:40.991Z,14.07
2023-03-26T03:01:08.357Z,14.43
2023-03-26T03:03:36.617Z,14.70
2023-03-26T03:06:04.304Z,15.93
2023-03-26T03:08:31.822Z,14.90
2023-03-26T03:11:07.956Z,16.08
2023-03-26T03:13:34.906Z,15.07
2023-03-26T03:16:02.626Z,14.80
2023-03-26T03:18:29.674Z,14.20
2023-03-26T03:20:57.027Z,14.60
2023-03-26T03:23:24.078Z,16.15
2023-03-26T03:25:52.864Z,15.75
2023-03-26T03:28:20.213Z,14.00
2023-03-26T03:30:48.989Z,14.07
2023-03-26T03:33:16.241Z,14.68
2023-03-26T03:35:45.982Z,14.65
2023-03-26T03:38:13.006Z,15.30
2023-03-26T03:40:40.649Z,16.20
2023-03-26T03:43:07.618Z,15.13
2023-03-26T03:45:35.148Z,14.80
2023-03-26T03:48:02.366Z,14.73
2023-03-26T03:50:29.967Z,15.55
2023-03-26T03:52:59.167Z,14.80
2023-03-26T03:55:27.861Z,15.07
2023-03-26T03:57:54.946Z,18.27
2023-03-26T04:00:22.743Z,14.48
2023-03-26T04:02:50.589Z,16.00
2023-03-26T04:05:17.918Z,16.02
2023-03-26T04:07:45.659Z,15.88
2023-03-26T04:12:42.158Z,15.15
2023-03-26T04:15:12.181Z,15.68
2023-03-26T04:17:43.001Z,14.68
2023-03-26T04:20:14.964Z,16.20
2023-03-26T04:22:45.996Z,16.00
2023-03-26T04:25:13.810Z,15.35
2023-03-26T04:27:43.449Z,16.23
2023-03-26T04:30:15.923Z,14.75
2023-03-26T04:32:44.995Z,14.95
2023-03-26T04:35:16.813Z,14.60
2023-03-26T04:37:46.068Z,14.82
2023-03-26T04:40:22.470Z,15.30
2023-03-26T04:42:49.801Z,16.02
2023-03-26T04:45:22.891Z,14.50
2023-03-26T04:47:50.807Z,15.98
2023-03-26T04:50:18.577Z,15.48
2023-03-26T04:52:46.021Z,16.63
2023-03-26T04:55:26.044Z,16.02
2023-03-26T04:58:00.277Z,15.57
2023-03-26T05:00:30.327Z,15.50
2023-03-26T05:02:59.802Z,17.27
2023-03-26T05:05:30.936Z,16.20
2023-03-26T05:07:58.186Z,16.70
2023-03-26T05:10:35.165Z,14.60
2023-03-26T05:13:02.562Z,12.00
2023-03-26T05:15:31.133Z,11.85
2023-03-26T05:18:01.891Z,10.70
2023-03-26T05:20:31.269Z,10.77
2023-03-26T05:22:58.417Z,9.82
2023-03-26T05:25:30.226Z,8.38
2023-03-26T05:27:57.549Z,10.38
2023-03-26T05:30:24.966Z,9.45
2023-03-26T05:32:52.213Z,9.02
2023-03-26T05:35:20.430Z,9.25
2023-03-26T05:37:49.952Z,8.38
2023-03-26T05:40:32.153Z,8.60
2023-03-26T05:42:59.705Z,8.93
2023-03-26T05:45:26.697Z,9.07
2023-03-26T05:47:56.069Z,7.47
2023-03-26T05:50:25.005Z,8.95
2023-03-26T05:52:52.602Z,6.78
2023-03-26T05:55:20.353Z,8.25
2023-03-26T05:57:48.063Z,8.10
2023-03-26T06:00:15.462Z,8.13
2023-03-26T06:02:42.966Z,8.30
2023-03-26T06:05:10.396Z,7.90
2023-03-26T06:07:37.722Z,8.43
2023-03-26T06:10:05.121Z,6.60
2023-03-26T06:12:32.545Z,7.75
2023-03-26T06:14:59.771Z,7.28
2023-03-26T06:17:27.323Z,7.65
2023-03-26T06:19:54.772Z,7.05
2023-03-26T06:22:22.293Z,7.18
2023-03-26T06:24:50.440Z,6.90
2023-03-26T06:29:46.314Z,7.32
2023-03-26T06:32:19.531Z,6.28
2023-03-26T06:34:47.671Z,6.25
2023-03-26T06:37:16.202Z,5.32
2023-03-26T06:39:43.492Z,6.22
2023-03-26T06:42:11.035Z,5.40
2023-03-26T06:44:38.247Z,5.90
2023-03-26T06:47:05.882Z,4.93
2023-03-26T06:49:34.586Z,4.72
2023-03-26T06:52:05.203Z,5.30
2023-03-26T06:54:32.276Z,3.50
2023-03-26T06:57:00.041Z,5.20
2023-03-26T06:59:27.224Z,5.03
2023-03-26T07:01:54.725Z,4.85
2023-03-26T07:04:23.268Z,5.03
2023-03-26T07:06:51.516Z,4.57
2023-03-26T07:09:18.601Z,4.78
2023-03-26T07:14:33.320Z,3.80
2023-03-26T07:17:03.497Z,3.83
2023-03-26T07:19:31.336Z,3.33
2023-03-26T07:22:04.783Z,4.47
2023-03-26T07:27:47.501Z,3.10
2023-03-26T07:31:00.016Z,3.90
2023-03-26T07:33:38.925Z,3.60
2023-03-26T07:36:29.418Z,3.60
2023-03-26T07:39:18.950Z,3.88
2023-03-26T07:45:09.796Z,3.20
2023-03-26T07:47:45.212Z,3.00
2023-03-26T07:50:21.329Z,3.53
2023-03-26T07:52:48.852Z,3.35
2023-03-26T07:55:17.400Z,3.17
2023-03-26T07:57:48.834Z,2.95
2023-03-26T08:00:25.727Z,4.10
2023-03-26T08:03:10.130Z,3.42
2023-03-26T08:05:59.454Z,2.88
2023-03-26T08:08:57.354Z,3.42
2023-03-26T08:11:27.901Z,2.50
2023-03-26T08:14:27.011Z,3.42
2023-03-26T08:17:03.360Z,3.90
2023-03-26T08:19:46.981Z,3.42
2023-03-26T08:22:31.501Z,3.60
2023-03-26T08:25:19.978Z,4.28
2023-03-26T08:28:08.963Z,3.10
2023-03-26T08:30:40.946Z,4.00
2023-03-26T08:33:22.904Z,3.58
2023-03-26T08:38:20.145Z,3.20
2023-03-26T08:41:30.110Z,3.20
2023-03-26T08:44:35.575Z,3.45
2023-03-26T08:47:25.964Z,3.40
2023-03-26T08:50:12.163Z,3.60
2023-03-26T08:52:43.341Z,2.97
2023-03-26T08:55:43.538Z,3.53
2023-03-26T08:58:33.711Z,3.50
2023-03-26T09:01:25.825Z,2.95
2023-03-26T09:04:21.733Z,3.05
2023-03-26T09:07:12.828Z,3.38
2023-03-26T09:10:15.721Z,3.35
2023-03-26T09:12:52.368Z,3.30
2023-03-26T09:15:47.816Z,2.80
2023-03-26T09:18:40.064Z,3.35
2023-03-26T09:21:25.980Z,3.55
2023-03-26T09:24:25.842Z,3.20
2023-03-26T09:27:26.295Z,3.75
2023-03-26T09:30:24.758Z,3.40
2023-03-26T09:32:58.638Z,3.35
2023-03-26T09:38:37.161Z,2.63
2023-03-26T09:41:30.943Z,3.35
2023-03-26T09:44:44.730Z,1.98
2023-03-26T09:47:54.065Z,2.13
2023-03-26T09:50:33.225Z,2.70
2023-03-26T09:53:25.030Z,2.40
2023-03-26T09:56:14.906Z,2.47
2023-03-26T09:59:08.308Z,2.80
2023-03-26T10:01:54.458Z,2.08
2023-03-26T10:04:50.296Z,2.13
2023-03-26T10:07:41.725Z,2.95
2023-03-26T10:10:26.070Z,1.92
2023-03-26T10:13:14.063Z,2.83
2023-03-26T10:16:20.929Z,2.38
2023-03-26T10:19:42.293Z,2.35
2023-03-26T10:22:23.011Z,2.50
2023-03-26T10:25:15.168Z,2.72
2023-03-26T10:28:14.364Z,1.63
2023-03-26T10:31:06.318Z,1.60
2023-03-26T10:34:08.764Z,1.40
2023-03-26T10:37:45.602Z,1.13
2023-03-26T10:40:50.299Z,1.27
2023-03-26T10:44:07.534Z,1.35
2023-03-26T10:46:56.949Z,1.10
2023-03-26T10:49:27.818Z,0.60
2023-03-26T10:51:59.711Z,1.02
2023-03-26T10:55:12.181Z,1.08
2023-03-26T10:58:24.930Z,1.23
2023-03-26T11:01:09.646Z,0.85
2023-03-26T11:03:38.568Z,0.90
2023-03-26T11:06:26.964Z,1.15
2023-03-26T11:09:03.049Z,1.00
2023-03-26T11:11:55.818Z,1.05
2023-03-26T11:18:05.469Z,0.82
2023-03-26T11:21:18.904Z,0.88
2023-03-26T11:24:43.045Z,1.48
2023-03-26T11:27:25.866Z,1.00
2023-03-26T11:30:00.660Z,0.85
2023-03-26T11:32:41.506Z,0.68
2023-03-26T11:35:40.236Z,0.80
2023-03-26T11:38:51.041Z,0.95
2023-03-26T11:41:23.891Z,1.20
2023-03-26T11:43:58.012Z,0.90
2023-03-26T11:46:28.853Z,0.88
2023-03-26T11:49:09.778Z,1.00
2023-03-26T11:51:41.888Z,0.80
2023-03-26T11:54:12.623Z,0.70
2023-03-26T11:57:05.805Z,0.95
2023-03-26T11:59:49.063Z,0.90
2023-03-26T12:02:41.354Z,0.82
2023-03-26T12:05:16.630Z,1.27
2023-03-26T12:07:54.130Z,2.20
2023-03-26T12:10:30.138Z,1.05
2023-03-26T12:13:22.346Z,0.80
2023-03-26T12:15:50.454Z,0.90
2023-03-26T12:18:26.347Z,1.10
2023-03-26T12:23:56.573Z,1.65
2023-03-26T12:26:45.776Z,1.70
2023-03-26T12:29:22.119Z,1.45
2023-03-26T12:31:56.190Z,1.63
2023-03-26T12:34:32.220Z,1.88
2023-03-26T12:37:03.784Z,1.08
2023-03-26T12:40:08.826Z,1.50
2023-03-26T12:44:44.118Z,1.08
2023-03-26T12:45:42.348Z,1.33
2023-03-26T12:48:15.853Z,1.35
2023-03-26T12:51:18.508Z,1.38
2023-03-26T12:53:54.981Z,1.40
2023-03-26T12:57:11.925Z,1.67
2023-03-26T13:00:11.552Z,2.15
2023-03-26T13:03:10.596Z,1.90
2023-03-26T13:06:16.675Z,1.50
2023-03-26T13:09:22.656Z,2.20
2023-03-26T13:12:24.812Z,2.00
2023-03-26T13:15:25.775Z,1.88
2023-03-26T13:18:28.966Z,1.75
2023-03-26T13:21:10.426Z,1.95
2023-03-26T13:23:57.584Z,2.10
2023-03-26T13:26:45.902Z,1.77
2023-03-26T13:29:29.101Z,1.52
2023-03-26T13:32:21.611Z,1.50
2023-03-26T13:35:19.078Z,1.50
2023-03-26T13:38:12.079Z,1.38
2023-03-26T13:41:12.092Z,1.25
2023-03-26T13:44:05.494Z,1.45
2023-03-26T13:46:38.114Z,1.40
2023-03-26T13:49:06.356Z,1.38
2023-03-26T13:51:44.831Z,1.25
2023-03-26T13:54:17.002Z,1.70
2023-03-26T13:56:52.735Z,1.30
2023-03-26T13:59:38.140Z,1.23
2023-03-26T14:02:11.821Z,1.10
2023-03-26T14:04:44.550Z,1.60
2023-03-26T14:07:23.761Z,1.15
2023-03-26T14:10:19.343Z,1.35
2023-03-26T14:13:30.656Z,1.50
2023-03-26T14:16:17.872Z,1.50
2023-03-26T14:19:13.215Z,1.17
2023-03-26T14:21:49.805Z,1.10
2023-03-26T14:25:03.846Z,1.30
2023-03-26T14:31:08.683Z,1.20
2023-03-26T14:33:58.832Z,1.20
2023-03-26T14:40:28.209Z,1.40
2023-03-26T14:43:26.392Z,1.63
2023-03-26T14:46:18.278Z,1.27
2023-03-26T14:49:40.184Z,1.55
2023-03-26T14:52:22.534Z,1.08
2023-03-26T14:58:23.262Z,1.80
2023-03-26T15:01:17.558Z,1.65
2023-03-26T15:04:07.169Z,1.20
2023-03-26T15:07:16.278Z,1.10
2023-03-26T15:09:58.808Z,1.52
2023-03-26T15:13:11.098Z,2.80
2023-03-26T15:15:53.818Z,0.88
2023-03-26T15:18:41.955Z,1.40
2023-03-26T15:21:45.895Z,1.10
2023-03-26T15:24:50.941Z,0.77
2023-03-26T15:27:27.088Z,0.85
2023-03-26T15:29:57.614Z,1.08
2023-03-26T15:32:46.329Z,1.15
2023-03-26T15:35:26.406Z,1.33
2023-03-26T15:38:25.138Z,1.08
2023-03-26T15:41:23.144Z,1.02
2023-03-26T15:47:21.941Z,1.40
2023-03-26T15:49:55.549Z,1.80
2023-03-26T15:52:38.142Z,1.30
2023-03-26T15:55:28.831Z,1.17
2023-03-26T15:58:35.576Z,1.60
2023-03-26T16:01:40.811Z,1.48
2023-03-26T16:04:18.097Z,1.25
2023-03-26T16:07:04.658Z,1.50
2023-03-26T16:09:58.745Z,2.20
2023-03-26T16:12:36.856Z,1.50
2023-03-26T16:15:22.565Z,1.55
2023-03-26T16:18:07.077Z,1.63
2023-03-26T16:20:55.780Z,1.48
2023-03-26T16:23:47.738Z,1.35
2023-03-26T16:26:21.145Z,1.48
2023-03-26T16:28:55.609Z,1.45
2023-03-26T16:31:38.477Z,1.48
2023-03-26T16:34:08.440Z,1.60
2023-03-26T16:36:39.101Z,1.30
2023-03-26T16:39:08.370Z,1.67
2023-03-26T16:42:46.496Z,2.17
2023-03-26T16:45:35.726Z,2.50
2023-03-26T16:48:29.092Z,3.70
2023-03-26T16:51:35.734Z,4.50
2023-03-26T16:54:18.291Z,3.42
2023-03-26T16:57:18.493Z,6.18
2023-03-26T17:00:16.514Z,7.35
2023-03-26T17:02:57.839Z,5.13
2023-03-26T17:05:53.044Z,8.05
2023-03-26T17:08:53.595Z,4.68
2023-03-26T17:11:49.323Z,5.10
2023-03-26T17:14:22.878Z,3.20
2023-03-26T17:17:23.289Z,5.03
2023-03-26T17:20:04.293Z,3.75
2023-03-26T17:22:31.660Z,4.57
2023-03-26T17:25:19.549Z,5.68
2023-03-26T17:27:55.961Z,8.93
2023-03-26T17:30:33.713Z,7.82
2023-03-26T17:33:20.171Z,7.78
2023-03-26T17:35:53.361Z,7.00
2023-03-26T17:38:23.562Z,8.52
2023-03-26T17:43:53.222Z,7.53
2023-03-26T17:46:33.173Z,6.53
2023-03-26T17:49:27.324Z,6.95
2023-03-26T17:51:58.409Z,6.47
2023-03-26T17:54:44.332Z,6.25
2023-03-26T17:57:24.065Z,7.32
2023-03-26T18:00:09.285Z,7.55
2023-03-26T18:05:29.553Z,8.88
2023-03-26T18:08:02.174Z,9.73
2023-03-26T18:10:53.758Z,9.20
2023-03-26T18:13:43.375Z,10.95
2023-03-26T18:16:21.285Z,8.00
2023-03-26T18:18:59.164Z,9.25
2023-03-26T18:21:52.088Z,8.25
2023-03-26T18:24:27.919Z,7.55
2023-03-26T18:27:13.280Z,8.23
2023-03-26T18:30:13.336Z,7.68
2023-03-26T18:33:00.329Z,8.32
2023-03-26T18:35:41.787Z,7.05
2023-03-26T18:38:37.166Z,6.95
2023-03-26T18:41:37.458Z,8.25
2023-03-26T18:44:17.594Z,9.35
2023-03-26T18:47:01.606Z,7.85
2023-03-26T18:49:42.095Z,8.27
2023-03-26T18:52:27.835Z,15.27
2023-03-26T18:54:57.146Z,7.28
2023-03-26T18:57:32.172Z,8.65
2023-03-26T19:00:19.484Z,10.70
2023-03-26T19:03:02.201Z,9.18
2023-03-26T19:05:36.880Z,10.48
2023-03-26T19:08:07.546Z,10.85
2023-03-26T19:10:38.337Z,9.68
2023-03-26T19:13:08.355Z,8.75
2023-03-26T19:15:41.156Z,7.35
2023-03-26T19:18:14.567Z,9.75
2023-03-26T19:23:46.778Z,6.63
2023-03-26T19:26:15.488Z,6.57
2023-03-26T19:29:02.093Z,8.68
2023-03-26T19:31:32.365Z,8.73
2023-03-26T19:34:14.908Z,13.60
2023-03-26T19:36:58.384Z,16.35
2023-03-26T19:39:51.308Z,14.68
2023-03-26T19:42:43.997Z,16.70
2023-03-26T19:45:20.564Z,10.32
2023-03-26T19:47:57.289Z,10.98
2023-03-26T19:50:34.552Z,14.07
2023-03-26T19:53:19.275Z,14.18
2023-03-26T19:56:08.647Z,14.82
2023-03-26T19:58:36.548Z,11.15
2023-03-26T20:01:04.911Z,14.35
2023-03-26T20:03:44.706Z,15.48
2023-03-26T20:06:16.020Z,17.77
2023-03-26T20:08:45.499Z,11.48
2023-03-26T20:13:47.346Z,13.30
2023-03-26T20:19:15.266Z,24.05
2023-03-26T20:21:44.541Z,29.50
2023-03-26T20:24:15.843Z,26.85
2023-03-26T20:26:44.976Z,46.78
2023-03-26T20:29:15.440Z,83.60
2023-03-26T20:31:43.304Z,22.27
2023-03-26T20:34:22.720Z,55.50
2023-03-26T20:37:01.161Z,57.95
2023-03-26T20:39:29.913Z,53.38
2023-03-26T20:42:00.191Z,30.63
2023-03-26T20:44:29.025Z,40.55
2023-03-26T20:46:57.955Z,38.63
2023-03-26T20:49:29.358Z,32.00
2023-03-26T20:51:57.083Z,28.75
2023-03-26T20:54:28.109Z,26.85
2023-03-26T20:56:55.295Z,19.10
2023-03-26T20:59:27.044Z,18.50
2023-03-26T21:01:57.359Z,18.55
2023-03-26T21:04:26.403Z,19.13
2023-03-26T21:07:00.439Z,16.50
2023-03-26T21:09:34.252Z,17.65
2023-03-26T21:12:33.547Z,18.67
2023-03-26T21:15:03.293Z,17.58
2023-03-26T21:17:32.334Z,17.92
2023-03-26T21:20:09.041Z,18.02
2023-03-26T21:23:00.171Z,19.92
2023-03-26T21:25:53.997Z,19.80
2023-03-26T21:28:42.033Z,17.17
2023-03-26T21:31:18.646Z,23.83
2023-03-26T21:33:46.741Z,24.30
2023-03-26T21:36:14.993Z,21.48
2023-03-26T21:38:45.801Z,25.85
2023-03-26T21:41:43.804Z,22.88
2023-03-26T21:44:11.058Z,21.85
2023-03-26T21:46:41.661Z,23.52
2023-03-26T21:49:09.225Z,15.75
2023-03-26T21:51:38.087Z,16.98
2023-03-26T21:54:25.946Z,16.60
2023-03-26T21:57:00.837Z,16.60
2023-03-26T21:59:37.040Z,14.60
2023-03-26T22:02:12.925Z,13.40
2023-03-26T22:04:54.601Z,13.85
2023-03-26T22:07:36.239Z,13.60
2023-03-26T22:10:03.364Z,13.60
2023-03-26T22:12:30.736Z,16.00
2023-03-26T22:14:58.198Z,21.63
2023-03-26T22:17:25.598Z,15.32
2023-03-26T22:19:52.664Z,14.25
2023-03-26T22:22:22.212Z,12.38
2023-03-26T22:27:16.841Z,12.18
2023-03-26T22:29:43.864Z,14.00
2023-03-26T22:32:12.272Z,13.05
2023-03-26T22:34:41.480Z,14.40
2023-03-26T22:37:08.819Z,14.77
2023-03-26T22:39:36.749Z,16.75
2023-03-26T22:42:05.094Z,16.83
2023-03-26T22:44:32.144Z,19.42
2023-03-26T22:46:59.587Z,17.58
2023-03-26T22:49:27.531Z,18.95
2023-03-26T22:51:57.428Z,16.75
2023-03-26T22:54:24.520Z,16.88
2023-03-26T22:56:52.479Z,20.42
2023-03-26T22:59:19.511Z,16.17
2023-03-26T23:01:46.863Z,15.48
2023-03-26T23:04:31.390Z,14.57
2023-03-26T23:07:00.123Z,14.57
2023-03-26T23:09:27.077Z,14.50
2023-03-26T23:11:54.392Z,15.52
2023-03-26T23:14:21.910Z,16.30
2023-03-26T23:16:50.028Z,17.90
2023-03-26T23:19:18.001Z,15.50
2023-03-26T23:21:45.419Z,15.52
2023-03-26T23:24:12.408Z,14.90
2023-03-26T23:26:49.618Z,13.35
2023-03-26T23:29:18.407Z,12.93
2023-03-26T23:31:45.820Z,14.48
2023-03-26T23:34:13.624Z,13.23
2023-03-26T23:36:41.947Z,13.13
2023-03-26T23:39:09.396Z,12.45
2023-03-26T23:41:36.909Z,14.18
2023-03-26T23:44:04.272Z,10.13
2023-03-26T23:46:34.824Z,11.68
2023-03-26T23:49:03.766Z,15.23
2023-03-26T23:56:27.841Z,14.38
2023-03-26T23:58:55.283Z,14.13
